To NAV CANADA Home Page Login to a new session Search on AWWS site Disclaimer Vers la page française équivalente Tips FAQ What's new on the site To the Forecasts and Observations / NOTAM section To "File a Flight Plan" website Publications and other links Update of the User's profile FIC Telephone Numbers My Weather Data Folder Route Weather Data Regional Weather Data Local Weather Data To the Forecasts and Observations / NOTAM section
Request Generated 04/05/2020 at 05:37:44 UTC . Weather information available at that time is displayed.

METAR/TAF

WINDSOR/ON    (show WxCam)

SPECI CYQG 050536Z AUTO 01009KT 9SM SCT012 OVC028 08/06 A3006 RMK SLP185=
SPECI CYQG 050520Z AUTO 35009KT 9SM BKN012 OVC023 08/06 A3006 RMK SLP185=
SPECI CYQG 050514Z AUTO 34010KT 9SM BKN009 BKN017 OVC023 08/06 A3007 RMK SLP186=
SPECI CYQG 050509Z AUTO 36008KT 9SM SCT009 BKN014 OVC021 08/06 A3007 RMK SLP186=
METAR CYQG 050500Z AUTO 35008KT 9SM BKN009 OVC013 08/07 A3007 RMK SLP186=
METAR CYQG 050400Z AUTO 33008KT 9SM OVC009 09/08 A3006 RMK SLP183=
SPECI CYQG 050353Z AUTO 33008KT 8SM OVC009 09/08 A3006 RMK SLP183=
SPECI CYQG 050327Z AUTO 33008KT 9SM -RA OVC009 09/08 A3005 RMK SLP181=
SPECI CYQG 050302Z AUTO 32006KT 8SM OVC009 09/08 A3005 RMK SLP180=
METAR CYQG 050300Z AUTO 33007KT 7SM -RA OVC009 09/08 A3005 RMK SLP180=

TAF AMD CYQG 050305Z 0503/0524 34008KT 4SM -DZ BR OVC007 TEMPO
0503/0514 P6SM NSW OVC012 PROB30 0505/0514 2SM -DZ BR OVC004
FM051400 03010KT P6SM SCT015 BKN120
FM051700 04010KT P6SM SCT120
RMK FCST BASED ON AUTO OBS. NXT FCST BY 050600Z=

LONDON/ON    

METAR CYXU 050500Z 32007KT 15SM OVC030 06/04 A3002 RMK SC8 SLP172=
METAR CYXU 050400Z 29009KT 15SM OVC038 07/04 A3002 RMK SC8 SLP173=
SPECI CYXU 050347Z 28010KT 15SM OVC040 07/04 A3002 RMK SC8 SLP172=
METAR CYXU 050300Z 25005KT 15SM -SHRA OVC050 09/05 A3001 RMK SC8 CVCTV CLD ASOCTD SLP167=

TAF CYXU 042338Z 0500/0524 20008KT P6SM SCT040 BKN090
FM050200 23006KT P6SM -SHRA BKN040 OVC090
FM050600 31008KT P6SM -DZ BKN006 OVC040 PROB30 0506/0512 2SM -DZ
BR OVC004
FM051500 34012KT P6SM BKN008 OVC160
FM051700 34012KT P6SM SCT020 BKN120
FM052000 34010KT P6SM SKC
RMK NXT FCST BY 050600Z=

SARNIA (CHRIS HADFIELD)/ON    (show WxCam)

SPECI CYZR 050531Z AUTO 01013KT 7SM FEW009 OVC014 02/01 A3009 RMK SLP196=
SPECI CYZR 050529Z AUTO 01012G17KT 6SM -RA BR FEW009 OVC014 02/01 A3009 RMK SLP196=
SPECI CYZR 050512Z AUTO 36013G21KT 4SM -RA BR SCT007 SCT010 OVC014 03/02 A3009 RMK SLP195=
METAR CYZR 050500Z AUTO 01014KT 3SM -RA BR BKN005 OVC012 03/02 A3009 RMK SLP195=
SPECI CYZR 050458Z AUTO 01013G18KT 3SM -RA BR BKN005 OVC012 03/02 A3009 RMK SLP195=
SPECI CYZR 050445Z AUTO 01015KT 2SM -RA BR BKN005 OVC013 03/02 A3009 RMK SLP193=
SPECI CYZR 050429Z AUTO 01014G20KT 1 3/4SM -RA BR BKN005 OVC011 03/02 A3008 RMK SLP192=
METAR CYZR 050400Z AUTO 01016KT 2 1/4SM -RA BR OVC007 03/02 A3008 RMK SLP190=
SPECI CYZR 050350Z AUTO 01014KT 2 1/2SM -RA BR BKN007 OVC013 03/02 A3008 RMK SLP191=
SPECI CYZR 050349Z AUTO 01014KT 3SM -RA BR BKN007 OVC013 03/02 A3008 RMK SLP191=
SPECI CYZR 050344Z AUTO 01011KT 5SM BR BKN007 OVC013 03/02 A3008 RMK SLP192=
SPECI CYZR 050335Z AUTO 01010G18KT 9SM BKN007 OVC013 03/02 A3007 RMK SLP190=
SPECI CYZR 050318Z AUTO 02012KT 9SM SCT007 OVC013 03/02 A3006 RMK SLP186=
METAR CYZR 050300Z AUTO 02011G17KT 9SM BKN007 OVC013 03/02 A3006 RMK SLP187=

*** REMARK        : Forecast period has ended; this was the last TAF issued
*** REMARQUE : La période de prévision est échue; ceci était le dernier TAF qui a été émis
TAF CYZR 041938Z 0420/0502 18005KT P6SM BKN160
FM042100 31005KT P6SM BKN060
FM050000 31005KT P6SM SCT020 OVC060 TEMPO 0500/0502 P6SM -SHRA
BKN020 OVC060
RMK FCST BASED ON AUTO OBS. NXT FCST WILL BE ISSUED AT 050745Z=

KITCHENER/WATERLOO/ON    (show WxCam)

METAR CYKF 050500Z AUTO 24006KT 9SM OVC042 10/05 A2999 RMK SLP161=
METAR CYKF 050400Z AUTO 20005KT 9SM OVC050 10/06 A2999 RMK SLP162=
METAR CYKF 050300Z AUTO 17006KT 9SM OVC055 10/06 A2998 RMK SLP160=

TAF CYKF 050138Z 0502/0514 VRB03KT P6SM BKN040 OVC070
FM050300 VRB03KT P6SM -SHRA OVC030 TEMPO 0503/0507 P6SM NSW
OVC020
FM050700 31006KT 4SM -DZ BR OVC006 TEMPO 0507/0509 P6SM NSW
SCT006 OVC030 PROB30 0507/0509 OVC005
FM050900 32012KT P6SM OVC008 TEMPO 0509/0514 OVC010
RMK FCST BASED ON AUTO OBS. NXT FCST BY 050800Z=

HAMILTON/ON    

METAR CYHM 050500Z 23005KT 15SM OVC053 08/05 A3000 RMK SC8 SLP165=
METAR CYHM 050400Z 19005KT 15SM FEW040 BKN060 BKN075 08/05 A3000 RMK SC2SC3AC3 SLP165=
METAR CYHM 050300Z 19003KT 60SM SCT040 BKN090 08/05 A3000 RMK SC4AC3 SLP166=

TAF CYHM 042338Z 0500/0524 21007KT P6SM SCT030 BKN120
FM050300 23007KT P6SM -SHRA BKN030 OVC050
FM050700 29007KT P6SM SCT008 OVC020
FM051000 29008KT P6SM BKN010 OVC030
FM051400 33010KT P6SM SCT015
FM051800 36005KT P6SM BKN120
FM052100 06006KT P6SM SCT050
RMK NXT FCST BY 050600Z=

TORONTO/LESTER B. PEARSON INTL/ON    

METAR CYYZ 050500Z 16009KT 15SM OVC060 07/05 A3000 RMK SC8 SLP163=
METAR CYYZ 050400Z 14003KT 15SM -RA OVC075 07/05 A3000 RMK AC8 SLP163=
METAR CYYZ 050300Z 16011KT 15SM BKN080 07/05 A3000 RMK AC7 SLP165=

TAF CYYZ 050238Z 0503/0606 16008KT P6SM SCT030 BKN120 TEMPO 0503/0507
P6SM -SHRA BKN030 OVC080
FM050700 VRB03KT 4SM BR BKN006 OVC025 TEMPO 0507/0509 6SM BR
SCT006 OVC025
FM050900 35008KT P6SM SCT008 BKN012 OVC040 PROB30 0509/0513
OVC008
FM051500 34015KT P6SM SCT015
FM052100 36012KT P6SM SKC
RMK NXT FCST BY 050600Z=
Your time UTC time
Weather data provided by Environment Canada and NAV CANADA